Time;durP1;ratioP1;P1;durP2;ratioP2;P2;SDS_P1;SDS_P2;PMS_P1;PMS_P2;Temp;Humidity;BMP_temperature;BMP_pressure;BME280_temperature;BME280_humidity;BME280_pressure;Samples;Min_cycle;Max_cycle;Signal;HPM_P1;HPM_P2
2024/01/07 00:00:01;;;;;;;;;;;3.20;99.90;;;2.21;100.00;97422.13;5038999;28;1339;-68
2024/01/07 00:02:28;;;;;;;;;;;3.30;99.90;;;2.19;100.00;97431.53;5020618;28;1946;-69
2024/01/07 00:08:49;;;;;;;;;;;3.20;99.90;;;2.19;100.00;97439.19;5037928;28;2626;-70
2024/01/07 00:29:41;;;;;;;;;;;3.20;99.90;;;2.26;100.00;97449.38;5047722;28;1451;-68
2024/01/07 00:32:26;;;;;;;;;;;3.20;99.90;;;2.32;100.00;97450.16;5030267;28;2012;-68
2024/01/07 00:34:53;;;;;;;;;;;3.20;99.90;;;2.26;100.00;97449.38;5039428;28;1475;-68
2024/01/07 00:37:22;;;;;;;;;;;3.20;99.90;;;2.20;100.00;97452.00;5042723;28;2448;-68
2024/01/07 00:39:49;;;;;;;;;;;3.20;99.90;;;2.18;100.00;97453.72;5005397;28;1441;-68
2024/01/07 00:42:16;;;;;;;;;;;3.20;99.90;;;2.13;100.00;97449.53;5042424;28;1399;-68
2024/01/07 00:44:43;;;;;;;;;;;3.10;99.90;;;2.13;100.00;97459.78;5040691;28;1606;-68
2024/01/07 00:47:09;;;;;;;;;;;3.20;99.90;;;2.11;100.00;97458.94;5040155;28;1435;-68
2024/01/07 00:49:36;;;;;;;;;;;3.10;99.90;;;2.10;100.00;97463.22;5024172;28;2109;-68
2024/01/07 00:52:04;;;;;;;;;;;3.10;99.90;;;2.06;100.00;97462.41;5040714;28;3325;-68
2024/01/07 00:54:31;;;;;;;;;;;3.10;99.90;;;2.04;100.00;97464.13;5006715;28;1422;-68
2024/01/07 00:56:57;;;;;;;;;;;3.10;99.90;;;2.17;100.00;97469.13;5028133;28;1591;-68
2024/01/07 00:59:24;;;;;;;;;;;3.10;99.90;;;2.14;100.00;97469.97;5041482;28;1844;-68
2024/01/07 01:01:51;;;;;;;;;;;3.10;99.90;;;2.09;100.00;97472.59;5037039;28;1515;-68
2024/01/07 01:04:19;;;;;;;;;;;3.10;99.90;;;2.11;100.00;97470.03;5040290;28;1484;-68
2024/01/07 01:06:46;;;;;;;;;;;3.20;99.90;;;2.09;100.00;97474.31;5043916;28;2202;-69
2024/01/07 01:09:13;;;;;;;;;;;3.10;99.90;;;2.14;100.00;97472.53;5041796;28;1487;-68
2024/01/07 01:11:40;;;;;;;;;;;3.20;99.90;;;2.10;100.00;97483.72;5041207;28;1906;-67
2024/01/07 01:14:07;;;;;;;;;;;3.10;99.90;;;2.07;100.00;97478.59;5039413;28;1667;-71
2024/01/07 01:16:34;;;;;;;;;;;3.10;99.90;;;1.99;100.00;97477.84;5038887;28;1499;-68
2024/01/07 01:19:00;;;;;;;;;;;3.00;99.90;;;2.03;100.00;97480.38;5041025;28;2142;-68
2024/01/07 01:21:27;;;;;;;;;;;3.10;99.90;;;2.02;100.00;97488.88;5028399;28;2507;-68
2024/01/07 01:23:54;;;;;;;;;;;3.10;99.90;;;2.02;100.00;97493.16;5040935;28;2641;-67
2024/01/07 01:26:21;;;;;;;;;;;3.00;99.90;;;2.01;100.00;97494.03;5041936;28;1385;-68
2024/01/07 01:28:48;;;;;;;;;;;3.10;99.90;;;1.92;100.00;97491.56;5040449;28;1409;-69
2024/01/07 01:31:15;;;;;;;;;;;3.00;99.90;;;2.03;100.00;97490.59;5041128;28;3293;-67
2024/01/07 01:33:42;;;;;;;;;;;3.00;99.90;;;2.07;100.00;97489.69;5039470;28;1353;-69
2024/01/07 01:36:09;;;;;;;;;;;3.10;99.90;;;1.95;100.00;97487.25;5041080;28;1870;-69
2024/01/07 01:38:36;;;;;;;;;;;3.00;99.90;;;2.06;100.00;97484.59;5040473;28;1445;-69
2024/01/07 01:41:03;;;;;;;;;;;3.00;99.90;;;1.99;100.00;97493.22;5025154;28;1651;-68
2024/01/07 01:43:30;;;;;;;;;;;3.00;99.90;;;1.94;100.00;97495.81;5040508;28;1509;-68
2024/01/07 01:45:58;;;;;;;;;;;3.00;99.90;;;2.06;100.00;97489.72;5041437;28;2752;-68
2024/01/07 01:48:26;;;;;;;;;;;3.00;99.90;;;1.94;100.00;97487.25;5042673;28;1661;-69
2024/01/07 01:50:54;;;;;;;;;;;3.00;99.90;;;1.94;100.00;97488.13;5030995;28;1374;-68
2024/01/07 01:53:21;;;;;;;;;;;3.00;99.90;;;2.00;100.00;97497.44;5027685;28;1997;-68
2024/01/07 01:55:48;;;;;;;;;;;3.00;99.90;;;1.88;100.00;97488.19;5039676;28;1460;-68
2024/01/07 01:58:17;;;;;;;;;;;3.00;99.90;;;1.84;100.00;97505.25;5040759;28;2133;-69
2024/01/07 02:00:44;;;;;;;;;;;2.90;99.90;;;1.88;100.00;97493.31;5038767;28;1425;-69
2024/01/07 02:03:11;;;;;;;;;;;2.90;99.90;;;1.94;100.00;97502.63;5041605;28;1394;-68
2024/01/07 02:05:39;;;;;;;;;;;2.90;99.90;;;1.98;100.00;97502.56;5043520;28;1381;-68
2024/01/07 02:08:06;;;;;;;;;;;3.00;99.90;;;1.96;100.00;97500.91;5042533;28;1584;-66
2024/01/07 02:10:36;;;;;;;;;;;2.90;99.90;;;1.92;100.00;97501.81;5028477;28;1525;-70
2024/01/07 02:13:05;;;;;;;;;;;3.00;99.90;;;1.92;100.00;97505.22;5008619;28;1981;-69
2024/01/07 02:15:34;;;;;;;;;;;3.00;99.90;;;1.87;100.00;97509.50;5043949;28;1420;-69
2024/01/07 02:18:01;;;;;;;;;;;2.90;99.90;;;1.87;100.00;97512.06;5044483;28;1631;-69
2024/01/07 02:20:28;;;;;;;;;;;2.90;99.90;;;1.98;100.00;97517.94;5043579;28;3160;-69
2024/01/07 02:22:57;;;;;;;;;;;2.90;99.90;;;1.88;100.00;97517.19;5041548;28;1416;-68
2024/01/07 02:25:24;;;;;;;;;;;2.90;99.90;;;1.79;100.00;97517.25;5041630;28;1424;-69
2024/01/07 02:27:51;;;;;;;;;;;2.90;99.90;;;1.88;100.00;97524.00;5005100;28;1581;-68
2024/01/07 02:30:18;;;;;;;;;;;2.90;99.90;;;1.83;100.00;97521.50;5042841;28;1405;-68
2024/01/07 02:32:45;;;;;;;;;;;2.80;99.90;;;1.78;100.00;97522.38;5039322;28;2050;-69
2024/01/07 02:35:12;;;;;;;;;;;2.80;99.90;;;1.74;100.00;97519.03;5039966;28;1464;-68
2024/01/07 02:37:39;;;;;;;;;;;2.80;99.90;;;1.85;100.00;97532.56;5040607;28;2774;-69
2024/01/07 02:40:07;;;;;;;;;;;2.80;99.90;;;1.74;100.00;97520.72;5041483;28;1529;-69
2024/01/07 02:42:34;;;;;;;;;;;2.90;99.90;;;1.71;100.00;97518.19;5042509;28;1510;-69
2024/01/07 02:45:02;;;;;;;;;;;2.80;99.90;;;1.68;100.00;97519.06;5042393;28;1382;-68
2024/01/07 02:47:28;;;;;;;;;;;2.80;99.90;;;1.71;100.00;97523.31;5040679;28;1158;-69
2024/01/07 02:49:56;;;;;;;;;;;2.70;99.90;;;1.71;100.00;97525.84;5038832;28;2663;-68
2024/01/07 02:52:23;;;;;;;;;;;2.70;99.90;;;1.65;100.00;97519.94;5044154;28;1910;-68
2024/01/07 02:54:50;;;;;;;;;;;2.70;99.90;;;1.68;100.00;97527.56;5043306;28;1350;-68
2024/01/07 02:57:17;;;;;;;;;;;2.70;99.90;;;1.65;100.00;97525.06;5040684;28;1393;-68
2024/01/07 02:59:43;;;;;;;;;;;2.70;99.90;;;1.64;100.00;97525.94;5044177;28;1081;-69
2024/01/07 03:02:10;;;;;;;;;;;;;;;1.58;100.00;97531.09;5040454;28;1468;-69
2024/01/07 03:04:37;;;;;;;;;;;2.70;99.90;;;1.60;100.00;97537.03;5041521;28;3114;-69
2024/01/07 03:07:04;;;;;;;;;;;2.60;99.90;;;1.65;100.00;97534.44;5043824;28;1345;-68
2024/01/07 03:09:31;;;;;;;;;;;2.70;99.90;;;1.57;100.00;97536.19;5040234;28;1407;-68
2024/01/07 03:11:58;;;;;;;;;;;2.70;99.90;;;1.60;100.00;97533.66;5040569;28;1902;-69
2024/01/07 03:14:25;;;;;;;;;;;2.60;99.90;;;1.57;100.00;97541.31;5044097;28;1365;-69
2024/01/07 03:16:52;;;;;;;;;;;2.60;99.90;;;1.53;100.00;97537.06;5042702;28;1979;-67
2024/01/07 03:19:20;;;;;;;;;;;2.70;99.90;;;1.57;100.00;97533.66;5044344;28;1175;-69
2024/01/07 03:21:48;;;;;;;;;;;2.60;99.90;;;1.56;100.00;97540.47;5042329;28;1393;-69
2024/01/07 03:24:18;;;;;;;;;;;2.70;99.90;;;1.50;100.00;97543.06;5028408;28;1359;-69
2024/01/07 03:26:45;;;;;;;;;;;2.70;99.90;;;1.56;100.00;97548.16;5043644;28;1502;-69
2024/01/07 03:29:12;;;;;;;;;;;2.70;99.90;;;1.52;100.00;97545.63;5044400;28;1458;-68
2024/01/07 03:31:38;;;;;;;;;;;2.50;99.90;;;1.44;100.00;97549.09;5026351;28;2334;-68
2024/01/07 03:34:08;;;;;;;;;;;2.50;99.90;;;1.50;100.00;97550.75;5040151;28;1610;-67
2024/01/07 03:36:35;;;;;;;;;;;2.50;99.90;;;1.46;100.00;97549.94;5038920;28;1143;-68
2024/01/07 03:39:02;;;;;;;;;;;2.50;99.90;;;1.54;100.00;97551.59;5021255;28;1414;-69
2024/01/07 03:41:29;;;;;;;;;;;2.60;99.90;;;1.53;100.00;97552.44;5038185;28;1409;-70
2024/01/07 03:43:56;;;;;;;;;;;2.60;99.90;;;1.41;100.00;97551.66;5023939;28;1355;-69
2024/01/07 03:46:23;;;;;;;;;;;2.50;99.90;;;1.49;100.00;97550.78;5041699;28;3298;-68
2024/01/07 03:48:50;;;;;;;;;;;2.50;99.90;;;1.47;100.00;97555.91;5038105;28;1241;-68
2024/01/07 03:51:17;;;;;;;;;;;2.50;99.90;;;1.52;100.00;97558.41;5042591;28;1405;-69
2024/01/07 03:53:44;;;;;;;;;;;2.40;99.90;;;1.46;100.00;97557.59;5040092;28;1910;-69
2024/01/07 03:56:11;;;;;;;;;;;2.50;99.90;;;1.42;100.00;97558.47;5031061;28;1835;-70
2024/01/07 03:58:38;;;;;;;;;;;2.50;99.90;;;1.53;100.00;97555.84;5045758;28;1303;-69
2024/01/07 04:01:05;;;;;;;;;;;2.50;99.90;;;1.46;100.00;97559.31;5047333;28;2614;-67
2024/01/07 04:03:32;;;;;;;;;;;2.50;99.90;;;1.55;100.00;97556.69;5046641;28;1283;-69
2024/01/07 04:05:59;;;;;;;;;;;2.50;99.90;;;1.44;100.00;97555.94;5049285;28;2417;-69
2024/01/07 04:08:26;;;;;;;;;;;2.50;99.90;;;1.48;100.00;97559.28;5046853;28;1189;-68
2024/01/07 04:10:52;;;;;;;;;;;2.60;99.90;;;1.56;100.00;97555.81;5047472;28;1449;-69
2024/01/07 04:13:20;;;;;;;;;;;2.50;99.90;;;1.40;100.00;97559.34;5028618;28;1981;-69
2024/01/07 04:15:47;;;;;;;;;;;2.50;99.90;;;1.43;100.00;97567.00;5048378;28;1381;-68
2024/01/07 04:18:14;;;;;;;;;;;2.50;99.90;;;1.39;100.00;97560.19;5044360;28;1664;-68
2024/01/07 04:20:41;;;;;;;;;;;2.50;99.90;;;1.40;100.00;97567.88;5047673;28;2731;-69
2024/01/07 04:23:08;;;;;;;;;;;2.50;99.90;;;1.58;100.00;97574.56;5043928;28;1398;-68
2024/01/07 04:25:34;;;;;;;;;;;2.50;99.90;;;1.47;100.00;97571.25;5035149;28;1444;-69
2024/01/07 04:28:04;;;;;;;;;;;2.50;99.90;;;1.50;100.00;97562.69;5046937;28;1401;-68
2024/01/07 04:30:31;;;;;;;;;;;2.50;99.90;;;1.43;100.00;97572.13;5031241;28;1394;-68
2024/01/07 04:32:58;;;;;;;;;;;2.50;99.90;;;1.50;100.00;97568.66;5045331;28;3476;-69
2024/01/07 04:35:25;;;;;;;;;;;2.50;99.90;;;1.43;100.00;97565.28;5047375;28;2714;-67
2024/01/07 04:37:52;;;;;;;;;;;2.60;99.90;;;1.42;100.00;97565.31;5029306;28;1290;-69
2024/01/07 04:40:19;;;;;;;;;;;2.50;99.90;;;1.49;100.00;97573.81;5051089;28;1664;-68
2024/01/07 04:42:46;;;;;;;;;;;2.50;99.90;;;1.52;100.00;97574.59;5033431;28;1363;-69
2024/01/07 04:45:14;;;;;;;;;;;2.50;99.90;;;1.48;100.00;97578.03;5048566;28;2251;-69
2024/01/07 04:47:41;;;;;;;;;;;2.60;99.90;;;1.42;100.00;97575.53;5046086;28;1375;-68
2024/01/07 04:50:08;;;;;;;;;;;2.50;99.90;;;1.37;100.00;97572.16;5045331;28;1243;-69
2024/01/07 04:52:35;;;;;;;;;;;2.50;99.90;;;1.39;100.00;97583.22;5034077;28;1981;-68
2024/01/07 04:55:02;;;;;;;;;;;2.60;99.90;;;1.42;100.00;97590.88;5030379;28;1442;-68
2024/01/07 04:57:28;;;;;;;;;;;2.60;99.90;;;1.34;100.00;97584.97;5030309;28;1311;-69
2024/01/07 04:59:56;;;;;;;;;;;2.50;99.90;;;1.44;100.00;97592.56;5029704;28;2333;-69
2024/01/07 05:02:23;;;;;;;;;;;2.50;99.90;;;1.42;100.00;97596.00;5048142;28;1559;-67
2024/01/07 05:04:50;;;;;;;;;;;2.40;99.90;;;1.51;100.00;97605.34;5047567;28;1046;-68
2024/01/07 05:07:17;;;;;;;;;;;2.50;99.90;;;1.46;100.00;97595.13;5027503;28;1087;-68
2024/01/07 05:09:43;;;;;;;;;;;2.50;99.90;;;1.39;100.00;97596.88;5041539;28;1318;-65
2024/01/07 05:12:10;;;;;;;;;;;2.50;99.90;;;1.43;100.00;97610.47;5041749;28;1993;-68
2024/01/07 05:14:37;;;;;;;;;;;2.50;99.90;;;1.41;100.00;97601.97;5025794;28;3242;-69
2024/01/07 05:17:04;;;;;;;;;;;2.50;99.90;;;1.36;100.00;97607.09;5044973;28;1484;-68
2024/01/07 05:19:31;;;;;;;;;;;2.40;99.90;;;1.39;100.00;97602.00;5027786;28;1330;-69
2024/01/07 05:21:58;;;;;;;;;;;2.40;99.90;;;1.34;100.00;97606.25;5045371;28;1127;-69
2024/01/07 05:24:25;;;;;;;;;;;2.40;99.90;;;1.33;100.00;97596.91;5045430;28;1449;-69
2024/01/07 05:26:53;;;;;;;;;;;2.40;99.90;;;1.26;100.00;97613.13;5043857;28;1377;-69
2024/01/07 05:29:22;;;;;;;;;;;2.30;99.90;;;1.27;100.00;97619.09;5046071;28;1897;-69
2024/01/07 05:31:49;;;;;;;;;;;2.30;99.90;;;1.25;100.00;97611.41;5045046;28;1405;-69
2024/01/07 05:34:16;;;;;;;;;;;2.30;99.90;;;1.31;100.00;97624.19;5042346;28;1988;-68
2024/01/07 05:36:43;;;;;;;;;;;2.30;99.90;;;1.24;100.00;97614.84;5027244;28;1387;-69
2024/01/07 05:39:13;;;;;;;;;;;2.30;99.90;;;1.27;100.00;97622.50;5040601;28;1492;-66
2024/01/07 05:41:40;;;;;;;;;;;2.30;99.90;;;1.27;100.00;97624.22;5028678;28;1976;-68
2024/01/07 05:44:08;;;;;;;;;;;2.30;99.90;;;1.25;100.00;97624.22;5044377;28;2484;-68
2024/01/07 05:46:39;;;;;;;;;;;2.30;99.90;;;1.28;100.00;97631.00;5027457;28;1394;-68
2024/01/07 05:49:06;;;;;;;;;;;2.30;99.90;;;1.30;100.00;97632.72;5025687;28;1383;-67
2024/01/07 05:51:33;;;;;;;;;;;2.30;99.90;;;1.27;100.00;97630.16;5025513;28;1311;-68
2024/01/07 05:54:00;;;;;;;;;;;2.30;99.90;;;1.30;100.00;97631.84;5024589;28;1902;-67
2024/01/07 05:56:26;;;;;;;;;;;2.40;99.90;;;1.38;100.00;97635.25;5042820;28;1353;-69
2024/01/07 05:58:53;;;;;;;;;;;2.40;99.90;;;1.33;100.00;97629.31;5045197;28;1310;-69
2024/01/07 06:01:21;;;;;;;;;;;2.30;99.90;;;1.30;100.00;97637.84;5040848;28;1433;-69
2024/01/07 06:03:48;;;;;;;;;;;2.30;99.90;;;1.31;100.00;97636.13;5026593;28;1324;-68
2024/01/07 06:06:15;;;;;;;;;;;2.30;99.90;;;1.35;100.00;97631.00;5011930;28;3735;-69
2024/01/07 06:08:42;;;;;;;;;;;2.40;99.90;;;1.32;100.00;97636.09;5043555;28;1333;-69
2024/01/07 06:11:10;;;;;;;;;;;2.40;99.90;;;1.37;100.00;97641.19;5043885;28;2678;-69
2024/01/07 06:13:37;;;;;;;;;;;2.40;99.90;;;1.35;100.00;97640.38;5042817;28;2011;-69
2024/01/07 06:16:04;;;;;;;;;;;2.40;99.90;;;1.35;100.00;97646.34;5036881;28;1382;-69
2024/01/07 06:18:31;;;;;;;;;;;2.40;99.90;;;1.34;100.00;97636.94;5041953;28;1652;-68
2024/01/07 06:21:01;;;;;;;;;;;2.30;99.90;;;1.34;100.00;97642.06;5041049;28;1165;-69
2024/01/07 06:23:28;;;;;;;;;;;2.40;99.90;;;1.39;100.00;97645.47;5045229;28;1390;-71
2024/01/07 06:25:55;;;;;;;;;;;2.40;99.90;;;1.43;100.00;97648.84;5024501;28;2303;-68
2024/01/07 06:28:21;;;;;;;;;;;2.50;99.90;;;1.36;100.00;97649.72;5042343;28;1405;-69
2024/01/07 06:30:48;;;;;;;;;;;2.40;99.90;;;1.33;100.00;97649.75;5042007;28;2554;-68
2024/01/07 06:33:15;;;;;;;;;;;2.40;99.90;;;1.37;100.00;97654.84;5041839;28;1989;-69
2024/01/07 06:35:42;;;;;;;;;;;2.40;99.90;;;1.33;100.00;97654.88;5028521;28;2042;-69
2024/01/07 06:38:09;;;;;;;;;;;2.40;99.90;;;1.45;100.00;97668.44;5040437;28;2492;-69
2024/01/07 06:40:36;;;;;;;;;;;2.40;99.90;;;1.45;100.00;97677.81;5041706;28;1103;-68
2024/01/07 06:43:03;;;;;;;;;;;2.40;99.90;;;1.47;100.00;97673.56;5041876;28;1451;-68
2024/01/07 06:45:31;;;;;;;;;;;2.50;99.90;;;1.50;100.00;97675.25;5044652;28;1437;-69
2024/01/07 06:47:58;;;;;;;;;;;2.40;99.90;;;1.38;100.00;97681.28;5039031;28;1404;-69
2024/01/07 06:50:25;;;;;;;;;;;2.40;99.90;;;1.34;100.00;97680.41;5047753;28;1457;-68
2024/01/07 06:52:52;;;;;;;;;;;2.40;99.90;;;1.38;100.00;97683.84;5041607;28;3278;-68
2024/01/07 06:55:18;;;;;;;;;;;2.40;99.90;;;1.40;100.00;97688.06;5041723;28;1405;-68
2024/01/07 06:57:45;;;;;;;;;;;2.50;99.90;;;1.54;100.00;97680.34;5025854;28;1161;-68
2024/01/07 07:00:13;;;;;;;;;;;2.50;99.90;;;1.56;100.00;97693.13;5041116;28;1377;-69
2024/01/07 07:02:40;;;;;;;;;;;2.50;99.90;;;1.47;100.00;97686.34;5006721;28;1423;-69
2024/01/07 07:05:08;;;;;;;;;;;2.50;99.90;;;1.48;100.00;97695.69;5043966;28;1341;-68
2024/01/07 07:07:38;;;;;;;;;;;2.50;99.90;;;1.42;100.00;97695.75;5013228;28;2495;-68
2024/01/07 07:10:05;;;;;;;;;;;2.40;99.90;;;1.47;100.00;97699.13;5039185;28;1272;-68
2024/01/07 07:12:32;;;;;;;;;;;2.40;99.90;;;1.38;100.00;97705.13;5041071;28;1357;-69
2024/01/07 07:15:00;;;;;;;;;;;2.50;99.90;;;1.46;100.00;97703.41;5040883;28;1929;-68
2024/01/07 07:17:26;;;;;;;;;;;2.50;99.90;;;1.41;100.00;97705.09;5040807;28;1197;-68
2024/01/07 07:19:53;;;;;;;;;;;2.50;99.90;;;1.49;100.00;97706.81;5023069;28;1122;-68
2024/01/07 07:22:21;;;;;;;;;;;2.50;99.90;;;1.46;100.00;97711.09;5040760;28;1975;-68
2024/01/07 07:24:47;;;;;;;;;;;2.50;99.90;;;1.50;100.00;97711.91;5041732;28;1464;-69
2024/01/07 07:27:16;;;;;;;;;;;2.40;99.90;;;1.45;100.00;97717.03;5040594;28;1393;-68
2024/01/07 07:29:42;;;;;;;;;;;2.50;99.90;;;1.48;100.00;97720.44;5041539;28;1070;-69
2024/01/07 07:32:09;;;;;;;;;;;2.50;99.90;;;1.39;100.00;97744.34;5041416;28;1652;-69
2024/01/07 07:34:36;;;;;;;;;;;2.40;99.90;;;1.43;100.00;97734.09;5045104;28;3067;-68
2024/01/07 07:37:04;;;;;;;;;;;2.50;99.90;;;1.52;100.00;97734.94;5040978;28;1389;-68
2024/01/07 07:39:30;;;;;;;;;;;2.50;99.90;;;1.44;100.00;97768.22;5042398;28;1349;-66
2024/01/07 07:41:57;;;;;;;;;;;2.50;99.90;;;1.48;100.00;97775.00;5040764;28;1240;-69
2024/01/07 07:44:24;;;;;;;;;;;2.50;99.90;;;1.36;100.00;97760.56;5044071;28;1296;-68
2024/01/07 07:46:51;;;;;;;;;;;2.50;99.90;;;1.38;100.00;97760.56;5025792;28;1463;-68
2024/01/07 07:49:18;;;;;;;;;;;2.50;99.90;;;1.43;100.00;97753.72;5041051;28;1757;-69
2024/01/07 07:51:45;;;;;;;;;;;2.40;99.90;;;1.42;100.00;97752.88;5040921;28;1396;-68
2024/01/07 07:54:12;;;;;;;;;;;2.40;99.90;;;1.42;100.00;97754.59;5037941;28;1910;-67
2024/01/07 07:56:38;;;;;;;;;;;2.50;99.90;;;1.42;100.00;97747.75;5043563;28;1176;-68
2024/01/07 07:59:05;;;;;;;;;;;2.50;99.90;;;1.51;100.00;97754.56;5039477;28;1023;-68
2024/01/07 08:01:32;;;;;;;;;;;2.50;99.90;;;1.48;100.00;97754.53;5040810;28;1358;-68
2024/01/07 08:03:59;;;;;;;;;;;2.50;99.90;;;1.51;100.00;97752.00;5039613;28;1967;-69
2024/01/07 08:06:26;;;;;;;;;;;2.50;99.90;;;1.51;100.00;97749.44;5040402;28;2612;-67
2024/01/07 08:08:53;;;;;;;;;;;2.50;99.90;;;1.51;100.00;97759.66;5039611;28;1445;-68
2024/01/07 08:11:22;;;;;;;;;;;2.50;99.90;;;1.55;100.00;97757.94;5041989;28;1154;-68
2024/01/07 08:13:49;;;;;;;;;;;2.50;99.90;;;1.56;100.00;97763.03;5039463;28;1985;-68
2024/01/07 08:16:16;;;;;;;;;;;2.50;99.90;;;1.54;100.00;97769.03;5038624;28;1689;-68
2024/01/07 08:18:43;;;;;;;;;;;2.60;99.90;;;1.63;100.00;97776.66;5040223;28;3255;-68
2024/01/07 08:21:10;;;;;;;;;;;2.60;99.90;;;1.60;100.00;97776.69;5041591;28;1365;-69
2024/01/07 08:23:37;;;;;;;;;;;2.70;99.90;;;1.62;100.00;97780.06;5041723;28;1598;-69
2024/01/07 08:26:04;;;;;;;;;;;2.70;99.90;;;1.65;100.00;97777.53;5025124;28;1445;-68
2024/01/07 08:28:31;;;;;;;;;;;2.70;99.90;;;1.66;100.00;97780.06;5043091;28;1370;-69
2024/01/07 08:30:58;;;;;;;;;;;2.60;99.90;;;1.67;100.00;97786.03;5040345;28;1995;-69
2024/01/07 08:33:25;;;;;;;;;;;2.70;99.90;;;1.62;100.00;97787.75;5040724;28;2562;-69
2024/01/07 08:35:52;;;;;;;;;;;2.70;99.90;;;1.62;100.00;97788.63;5040833;28;1919;-68
2024/01/07 08:38:19;;;;;;;;;;;2.70;99.90;;;1.68;100.00;97792.84;5037797;28;1338;-69
2024/01/07 08:40:46;;;;;;;;;;;2.70;99.90;;;1.62;100.00;97792.88;5042822;28;1405;-68
2024/01/07 08:43:12;;;;;;;;;;;2.60;99.90;;;1.58;100.00;97798.88;5039060;28;1405;-70
2024/01/07 08:45:40;;;;;;;;;;;2.60;99.90;;;1.58;100.00;97793.75;5047459;28;1343;-67
2024/01/07 08:48:07;;;;;;;;;;;2.60;99.90;;;1.62;100.00;97798.84;5048534;28;2007;-68
2024/01/07 08:50:34;;;;;;;;;;;2.70;99.90;;;1.66;100.00;97800.53;5045715;28;1381;-68
2024/01/07 08:53:01;;;;;;;;;;;2.70;99.90;;;1.67;100.00;97797.13;5044437;28;1414;-68
2024/01/07 08:55:31;;;;;;;;;;;2.70;99.90;;;1.66;100.00;97805.63;5046342;28;1995;-69
2024/01/07 08:57:59;;;;;;;;;;;2.70;99.90;;;1.69;100.00;97802.25;5045481;28;1396;-69
2024/01/07 09:00:30;;;;;;;;;;;2.70;99.90;;;1.68;100.00;97801.38;5029280;28;1367;-68
2024/01/07 09:02:58;;;;;;;;;;;2.70;99.90;;;1.69;100.00;97797.13;5032098;28;3505;-69
2024/01/07 09:05:25;;;;;;;;;;;2.60;99.90;;;1.67;100.00;97802.25;5041856;28;1098;-69
2024/01/07 09:07:52;;;;;;;;;;;2.70;99.90;;;1.65;100.00;97806.50;5047944;28;1747;-69
2024/01/07 09:10:20;;;;;;;;;;;2.60;99.90;;;1.70;100.00;97801.38;5045806;28;1369;-68
2024/01/07 09:12:49;;;;;;;;;;;2.70;99.90;;;1.67;100.00;97804.81;5043200;28;1421;-68
2024/01/07 09:15:18;;;;;;;;;;;2.60;99.90;;;1.76;100.00;97803.06;5043682;28;1932;-68
2024/01/07 09:17:46;;;;;;;;;;;2.70;99.90;;;1.72;100.00;97820.13;5033887;28;1100;-67
2024/01/07 09:20:13;;;;;;;;;;;2.60;99.90;;;1.71;100.00;97815.00;5029227;28;1366;-69
2024/01/07 09:22:40;;;;;;;;;;;2.70;99.90;;;1.78;100.00;97814.13;5029489;28;1388;-69
2024/01/07 09:25:07;;;;;;;;;;;2.70;99.90;;;1.75;100.00;97814.16;5045872;28;1362;-68
2024/01/07 09:27:34;;;;;;;;;;;2.70;99.90;;;1.80;100.00;97818.41;5045081;28;1461;-70
2024/01/07 09:30:01;;;;;;;;;;;2.80;99.90;;;1.70;100.00;97819.28;5045305;28;2059;-69
2024/01/07 09:32:28;;;;;;;;;;;2.70;99.90;;;1.77;100.00;97826.06;5042791;28;1419;-69
2024/01/07 09:34:55;;;;;;;;;;;2.80;99.90;;;1.84;100.00;97819.22;5042715;28;1910;-69
2024/01/07 09:37:22;;;;;;;;;;;2.80;99.90;;;1.83;100.00;97825.22;5023085;28;1280;-69
2024/01/07 09:39:49;;;;;;;;;;;2.80;99.90;;;1.88;100.00;97823.50;5042749;28;1448;-68
2024/01/07 09:42:19;;;;;;;;;;;2.80;99.90;;;1.85;100.00;97832.03;5040497;28;1445;-68
2024/01/07 09:44:46;;;;;;;;;;;2.90;99.90;;;1.87;100.00;97838.00;5025392;28;3029;-68
2024/01/07 09:47:14;;;;;;;;;;;2.90;99.90;;;1.93;100.00;97836.25;5025557;28;1389;-68
2024/01/07 09:49:42;;;;;;;;;;;2.90;99.90;;;1.85;100.00;97837.16;5041527;28;1405;-68
2024/01/07 09:52:10;;;;;;;;;;;2.90;99.90;;;1.90;100.00;97838.84;5043234;28;1452;-70
2024/01/07 09:54:38;;;;;;;;;;;2.90;99.90;;;1.91;100.00;97841.38;5041781;28;1910;-69
2024/01/07 09:57:07;;;;;;;;;;;2.90;99.90;;;1.89;100.00;97843.09;5026698;28;2150;-68
2024/01/07 09:59:36;;;;;;;;;;;2.90;99.90;;;1.96;100.00;97836.25;5027000;28;1376;-69
2024/01/07 10:02:03;;;;;;;;;;;3.00;99.90;;;2.00;100.00;97845.63;5038675;28;1469;-67
2024/01/07 10:04:31;;;;;;;;;;;3.00;99.90;;;1.90;100.00;97837.13;5040438;28;2609;-67
2024/01/07 10:06:58;;;;;;;;;;;2.90;99.90;;;2.01;100.00;97839.66;5040980;28;1441;-69
2024/01/07 10:09:30;;;;;;;;;;;2.90;99.90;;;1.99;100.00;97838.81;5041461;28;1365;-69
2024/01/07 10:11:57;;;;;;;;;;;2.90;99.90;;;2.00;100.00;97835.38;5040049;28;2239;-67
2024/01/07 10:14:25;;;;;;;;;;;3.00;99.90;;;2.10;100.00;97842.19;5046318;28;1902;-68
2024/01/07 10:16:54;;;;;;;;;;;3.00;99.90;;;2.02;100.00;97842.19;5025168;28;1624;-69
2024/01/07 10:19:22;;;;;;;;;;;3.00;99.90;;;2.08;100.00;97847.28;5041921;28;1380;-67
2024/01/07 10:22:02;;;;;;;;;;;3.10;99.90;;;2.05;100.00;97843.88;5025613;28;1302;-68
2024/01/07 10:24:38;;;;;;;;;;;3.00;99.90;;;2.12;100.00;97849.84;5043574;28;1417;-68
2024/01/07 10:27:06;;;;;;;;;;;3.10;99.90;;;2.11;100.00;97848.16;5042586;28;3025;-69
2024/01/07 10:29:33;;;;;;;;;;;3.10;99.90;;;2.11;100.00;97849.00;5042917;28;2626;-68
2024/01/07 10:32:06;;;;;;;;;;;3.10;99.90;;;2.20;100.00;97843.81;5044249;28;1489;-69
2024/01/07 10:34:35;;;;;;;;;;;3.10;99.90;;;2.25;100.00;97842.06;5027637;28;2635;-68
2024/01/07 10:37:07;;;;;;;;;;;3.20;99.90;;;2.19;100.00;97844.69;5040613;28;1342;-68
2024/01/07 10:39:35;;;;;;;;;;;3.10;99.90;;;2.30;100.00;97842.94;5029823;28;1461;-68
2024/01/07 10:42:02;;;;;;;;;;;3.10;99.90;;;2.35;100.00;97849.72;5042456;28;1339;-68
2024/01/07 10:44:31;;;;;;;;;;;3.20;99.90;;;2.27;100.00;97855.72;5026147;28;1501;-68
2024/01/07 10:46:59;;;;;;;;;;;3.20;99.90;;;2.19;100.00;97837.00;5043133;28;1419;-68
2024/01/07 10:49:27;;;;;;;;;;;3.20;99.90;;;2.15;100.00;97847.28;5042639;28;2645;-69
2024/01/07 10:52:01;;;;;;;;;;;3.10;99.90;;;2.17;100.00;97851.53;5041192;28;1419;-69
2024/01/07 10:54:29;;;;;;;;;;;3.20;99.90;;;2.04;100.00;97843.03;5047999;28;1894;-68
2024/01/07 10:57:40;;;;;;;;;;;3.20;99.90;;;2.07;100.00;97845.56;5022305;28;1390;-68
2024/01/07 11:00:08;;;;;;;;;;;3.10;99.90;;;2.18;100.00;97844.69;5023305;28;1433;-68
2024/01/07 11:02:48;;;;;;;;;;;3.10;99.90;;;2.21;100.00;97836.97;5009010;28;2006;-69
2024/01/07 11:05:20;;;;;;;;;;;3.10;99.90;;;2.14;100.00;97833.59;5041685;28;3652;-69
2024/01/07 11:07:57;;;;;;;;;;;3.20;99.90;;;2.24;100.00;97839.53;5038494;28;1454;-68
2024/01/07 11:10:35;;;;;;;;;;;3.10;99.90;;;2.27;100.00;97836.97;5022457;28;1219;-69
2024/01/07 11:13:35;;;;;;;;;;;3.20;99.90;;;2.17;100.00;97833.59;5024391;28;1395;-69
2024/01/07 11:16:02;;;;;;;;;;;3.20;99.90;;;2.16;100.00;97826.75;5021213;28;2076;-68
2024/01/07 11:18:33;;;;;;;;;;;3.20;99.90;;;2.09;100.00;97815.69;5021205;28;1396;-67
2024/01/07 11:21:01;;;;;;;;;;;3.10;99.90;;;2.03;100.00;97820.00;5038876;28;2260;-68
2024/01/07 11:23:39;;;;;;;;;;;3.10;99.90;;;2.13;100.00;97825.94;5041901;28;1424;-68
2024/01/07 11:26:09;;;;;;;;;;;3.10;99.90;;;2.06;100.00;97830.25;5027434;28;1332;-68
2024/01/07 11:28:50;;;;;;;;;;;3.10;99.90;;;2.14;100.00;97828.47;5012906;28;1454;-70
2024/01/07 11:31:21;;;;;;;;;;;3.10;99.90;;;2.19;100.00;97825.88;5040839;28;2027;-71
2024/01/07 11:33:50;;;;;;;;;;;3.00;99.90;;;2.07;100.00;97827.66;5025717;28;1462;-72
2024/01/07 11:36:17;;;;;;;;;;;3.10;99.90;;;2.07;100.00;97829.38;5041222;28;1429;-70
2024/01/07 11:38:46;;;;;;;;;;;3.00;99.90;;;2.07;100.00;97835.34;5028541;28;1383;-69
2024/01/07 11:41:17;;;;;;;;;;;3.00;99.90;;;2.06;100.00;97822.56;5043809;28;1121;-68
2024/01/07 11:43:55;;;;;;;;;;;3.00;99.90;;;1.95;100.00;97821.75;5037370;28;3057;-68
2024/01/07 11:46:22;;;;;;;;;;;3.00;99.90;;;2.08;100.00;97821.69;5023781;28;1434;-67
2024/01/07 11:48:52;;;;;;;;;;;3.00;99.90;;;2.06;100.00;97813.16;5040095;28;1367;-69
2024/01/07 11:51:19;;;;;;;;;;;3.00;99.90;;;2.13;100.00;97813.97;5035755;28;1387;-69
2024/01/07 11:53:47;;;;;;;;;;;3.00;99.90;;;2.12;100.00;97811.41;5040582;28;1394;-68
2024/01/07 11:56:15;;;;;;;;;;;3.10;99.90;;;2.01;100.00;97811.50;5040757;28;1967;-69
2024/01/07 11:58:42;;;;;;;;;;;3.10;99.90;;;1.92;100.00;97816.66;5039617;28;2685;-69